Meteo Giornale » Osservazioni meteo Spagna » Murcia-Alcantarilla
ore: 10:30 - Osservazioni Meteo Murcia-Alcantarilla
Lat. 37° 57' N Lon. 1° 14' W Alt. 75 metri s.l.m.
26 °C
Nuvoloso
Temp. 24 Ore
22 °C
34 °C
Nord/Nord-Est
11.1 Km/h
Dew point 21 °C
Umidità 73 %
Visibilità 10 Km
Il sole sorge alle ore 07:34
Il sole tramonta alle ore 20:34
| Data e Ora | Cielo e Fenomeni | T °C | DP °C | Um. % | Pres. hPa | Vis. km | Vento km/h | |
|---|---|---|---|---|---|---|---|---|
| Oggi h: 10:30 | Nuvoloso | 26 | 21 | 73 | 1020 | 10 | N/NE 11.1 | |
| Oggi h: 10:00 | Nuvoloso | 26 | 21 | 73 | 1020 | 10 | N 5.5 | |
| Oggi h: 09:30 | Nuvoloso | 25 | 21 | 78 | 1020 | 10 | N 1.8 | |
| Oggi h: 09:00 | Molto Nuvoloso | 25 | 21 | 78 | 1019 | 10 | N 0 | |
| Oggi h: 08:30 | Nuvoloso | 24 | 20 | 78 | 1019 | 10 | N 0 | |
| Oggi h: 08:00 | Molto Nuvoloso | 23 | 21 | 88 | 1019 | 10 | N 3.7 | |
| Oggi h: 07:30 | Nuvoloso | 22 | 20 | 88 | 1018 | 10 | N 3.7 | |
| Oggi h: 07:00 | Sereno | 22 | 20 | 88 | 1018 | 10 | N 3.7 | |
| Ieri h: 20:00 | Sereno | 30 | 17 | 45 | 1016 | 10 | SE 16.7 | |
| Ieri h: 19:30 | Sereno | 31 | 17 | 43 | 1016 | 10 | E/SE 16.7 | |
| Ieri h: 19:00 | Sereno | 31 | 17 | 43 | 1016 | 10 | E/SE 18.5 | |
| Ieri h: 18:30 | Sereno | 32 | 18 | 43 | 1016 | 10 | SE 20.3 | |
| Ieri h: 18:00 | Sereno | 32 | 18 | 43 | 1016 | 10 | SE 16.7 | |
| Ieri h: 17:30 | Sereno | 33 | 18 | 41 | 1016 | 10 | E/SE 16.7 | |
| Ieri h: 17:00 | Sereno | 33 | 17 | 38 | 1016 | 10 | E/SE 13 | |
| Ieri h: 16:30 | Sereno | 33 | 16 | 36 | 1016 | 10 | SE 16.7 | |
| Ieri h: 16:00 | Sereno | 33 | 16 | 36 | 1017 | 10 | E/SE 16.7 | |
| Ieri h: 15:30 | Sereno | 33 | 16 | 36 | 1017 | 10 | E/SE 16.7 | |
| Ieri h: 15:00 | Sereno | 34 | 14 | 30 | 1017 | 10 | E/SE 14.8 | |
| Ieri h: 14:30 | Sereno | 34 | 15 | 32 | 1017 | 10 | E/NE 18.5 | |
| Ieri h: 14:00 | Sereno | 33 | 14 | 31 | 1017 | 10 | E/NE 16.7 | |
| Ieri h: 13:30 | Sereno | 33 | 13 | 29 | 1018 | 10 | NE 13 | |
| Ieri h: 13:00 | Sereno | 32 | 12 | 29 | 1018 | 10 | NE 11.1 | |
| Ieri h: 12:30 | Sereno | 31 | 11 | 29 | 1018 | 10 | N 5.5 | |
| Ieri h: 12:00 | Sereno | 30 | 10 | 28 | 1018 | 10 | N 3.7 | |
| Ieri h: 11:30 | Sereno | 29 | 10 | 30 | 1018 | 10 | N 1.8 | |
| Ieri h: 11:00 | Sereno | 28 | 11 | 34 | 1018 | 10 | N 0 | |



